createdAt,value
2023-06-07T00:00:12.626Z,97508.97
2023-06-07T00:02:44.027Z,97509.94
2023-06-07T00:05:14.322Z,97512.16
2023-06-07T00:07:42.414Z,97518.47
2023-06-07T00:10:12.521Z,97507.25
2023-06-07T00:12:40.374Z,97510.03
2023-06-07T00:15:09.180Z,97511.72
2023-06-07T00:17:38.840Z,97514.25
2023-06-07T00:20:10.099Z,97514.69
2023-06-07T00:22:40.019Z,97504.19
2023-06-07T00:25:09.696Z,97502.25
2023-06-07T00:27:38.949Z,97512.63
2023-06-07T00:30:08.345Z,97504.22
2023-06-07T00:32:36.120Z,97495.78
2023-06-07T00:35:04.020Z,97504.63
2023-06-07T00:37:31.772Z,97496.50
2023-06-07T00:39:59.620Z,97491.06
2023-06-07T00:42:27.465Z,97499.59
2023-06-07T00:44:56.638Z,97494.13
2023-06-07T00:47:24.567Z,97490.22
2023-06-07T00:49:52.541Z,97489.06
2023-06-07T00:52:20.516Z,97492.44
2023-06-07T00:54:48.889Z,97487.13
2023-06-07T00:57:18.599Z,97483.50
2023-06-07T00:59:46.554Z,97493.28
2023-06-07T01:02:16.599Z,97490.50
2023-06-07T01:04:44.697Z,97490.34
2023-06-07T01:07:13.682Z,97495.53
2023-06-07T01:09:41.556Z,97493.84
2023-06-07T01:12:15.001Z,97491.88
2023-06-07T01:14:44.620Z,97481.50
2023-06-07T01:17:14.013Z,97483.50
2023-06-07T01:19:44.604Z,97477.47
2023-06-07T01:22:13.093Z,97481.53
2023-06-07T01:24:43.529Z,97479.00
2023-06-07T01:27:12.359Z,97473.66
2023-06-07T01:29:40.590Z,97488.81
2023-06-07T01:32:10.866Z,97481.94
2023-06-07T01:34:39.103Z,97483.91
2023-06-07T01:37:07.357Z,97472.56
2023-06-07T01:39:35.443Z,97475.94
2023-06-07T01:42:05.324Z,97473.41
2023-06-07T01:44:33.571Z,97472.56
2023-06-07T01:47:01.383Z,97470.88
2023-06-07T01:49:29.202Z,97467.25
2023-06-07T01:51:57.010Z,97463.59
2023-06-07T01:54:25.025Z,97437.56
2023-06-07T01:57:06.249Z,97462.75
2023-06-07T01:59:40.998Z,97456.91
2023-06-07T02:02:15.695Z,97464.72
2023-06-07T02:04:47.170Z,97458.56
2023-06-07T02:07:19.700Z,97455.03
2023-06-07T02:09:49.121Z,97459.56
2023-06-07T02:12:17.638Z,97450.56
2023-06-07T02:14:47.194Z,97453.22
2023-06-07T02:17:15.111Z,97451.28
2023-06-07T02:19:45.191Z,97459.25
2023-06-07T02:22:14.485Z,97453.94
2023-06-07T02:24:42.555Z,97454.91
2023-06-07T02:27:10.552Z,97454.91
2023-06-07T02:29:38.400Z,97453.22
2023-06-07T02:32:09.345Z,97450.88
2023-06-07T02:34:37.347Z,97450.03
2023-06-07T02:37:05.412Z,97447.63
2023-06-07T02:39:33.266Z,97450.72
2023-06-07T02:42:01.091Z,97451.25
2023-06-07T02:44:29.335Z,97447.88
2023-06-07T02:46:57.252Z,97447.88
2023-06-07T02:49:26.433Z,97449.84
2023-06-07T02:51:54.230Z,97450.97
2023-06-07T02:54:22.072Z,97451.81
2023-06-07T02:56:49.855Z,97429.13
2023-06-07T02:59:17.651Z,97448.72
2023-06-07T03:01:45.482Z,97447.31
2023-06-07T03:04:13.280Z,97451.94
2023-06-07T03:06:43.237Z,97449.56
2023-06-07T03:09:11.014Z,97449.56
2023-06-07T03:11:38.873Z,97455.13
2023-06-07T03:14:06.701Z,97457.53
2023-06-07T03:16:34.799Z,97442.56
2023-06-07T03:19:02.634Z,97442.16
2023-06-07T03:21:30.414Z,97444.09
2023-06-07T03:23:59.674Z,97441.84
2023-06-07T03:26:27.596Z,97448.00
2023-06-07T03:28:55.918Z,97452.50
2023-06-07T03:31:24.626Z,97452.31
2023-06-07T03:33:52.647Z,97451.34
2023-06-07T03:36:22.155Z,97447.84
2023-06-07T03:38:50.000Z,97452.19
2023-06-07T03:41:19.120Z,97454.84
2023-06-07T03:43:46.924Z,97457.38
2023-06-07T03:46:14.749Z,97454.47
2023-06-07T03:48:42.633Z,97449.81
2023-06-07T03:51:10.548Z,97454.47
2023-06-07T03:53:38.402Z,97456.81
2023-06-07T03:56:07.325Z,97462.00
2023-06-07T03:58:37.216Z,97458.50
2023-06-07T04:01:04.963Z,97462.84
2023-06-07T04:03:32.957Z,97461.59
2023-06-07T04:06:00.863Z,97457.13
2023-06-07T04:08:28.952Z,97458.94
2023-06-07T04:10:56.828Z,97457.66
2023-06-07T04:13:24.667Z,97452.06
2023-06-07T04:15:53.837Z,97458.50
2023-06-07T04:18:21.636Z,97454.13
2023-06-07T04:20:49.400Z,97455.56
2023-06-07T04:23:17.239Z,97456.81
2023-06-07T04:25:45.112Z,97452.34
2023-06-07T04:28:13.376Z,97449.69
2023-06-07T04:30:43.350Z,97453.75
2023-06-07T04:33:14.715Z,97450.53
2023-06-07T04:35:43.899Z,97457.69
2023-06-07T04:38:12.976Z,97454.19
2023-06-07T04:40:42.318Z,97453.91
2023-06-07T04:43:12.251Z,97459.22
2023-06-07T04:45:42.707Z,97450.41
2023-06-07T04:48:13.022Z,97456.69
2023-06-07T04:50:42.400Z,97444.94
2023-06-07T04:53:11.985Z,97460.34
2023-06-07T04:55:42.901Z,97459.09
2023-06-07T04:58:10.959Z,97464.69
2023-06-07T05:00:40.415Z,97463.19
2023-06-07T05:03:09.522Z,97459.81
2023-06-07T05:05:39.169Z,97459.97
2023-06-07T05:08:07.611Z,97464.59
2023-06-07T05:10:35.492Z,97460.50
2023-06-07T05:13:03.353Z,97460.22
2023-06-07T05:15:32.401Z,97462.16
2023-06-07T05:18:00.822Z,97458.38
2023-06-07T05:20:28.901Z,97458.78
2023-06-07T05:22:58.445Z,97451.59
2023-06-07T05:25:26.425Z,97460.41
2023-06-07T05:28:08.217Z,97460.09
2023-06-07T05:30:41.000Z,97457.00
2023-06-07T05:33:09.002Z,97455.31
2023-06-07T05:35:36.904Z,97458.78
2023-06-07T05:38:06.067Z,97468.03
2023-06-07T05:40:33.829Z,97472.31
2023-06-07T05:43:01.683Z,97474.38
2023-06-07T05:45:31.027Z,97470.00
2023-06-07T05:47:59.029Z,97472.91
2023-06-07T05:50:27.138Z,97466.41
2023-06-07T05:52:57.694Z,97472.25
2023-06-07T05:55:28.165Z,97472.81
2023-06-07T05:57:56.440Z,97436.88
2023-06-07T06:00:25.012Z,97470.72
2023-06-07T06:02:54.492Z,97471.63
2023-06-07T06:05:28.527Z,97473.00
2023-06-07T06:07:57.663Z,97481.84
2023-06-07T06:10:27.212Z,97481.81
2023-06-07T06:12:56.815Z,97477.03
2023-06-07T06:15:24.784Z,97467.94
2023-06-07T06:17:55.458Z,97468.53
2023-06-07T06:20:23.877Z,97470.81
2023-06-07T06:22:51.722Z,97474.88
2023-06-07T06:25:19.680Z,97471.75
2023-06-07T06:27:48.880Z,97476.72
2023-06-07T06:30:17.112Z,97475.03
2023-06-07T06:32:45.002Z,97470.19
2023-06-07T06:35:12.854Z,97481.72
2023-06-07T06:37:40.636Z,97477.28
2023-06-07T06:40:09.978Z,97478.19
2023-06-07T06:42:38.445Z,97485.22
2023-06-07T06:45:09.449Z,97483.44
2023-06-07T06:47:42.492Z,97486.31
2023-06-07T06:50:29.951Z,97484.44
2023-06-07T06:52:59.080Z,97490.50
2023-06-07T06:55:26.917Z,97490.44
2023-06-07T06:57:54.744Z,97484.72
2023-06-07T07:00:24.692Z,97451.84
2023-06-07T07:02:52.707Z,97482.53
2023-06-07T07:05:20.855Z,97487.59
2023-06-07T07:07:48.805Z,97489.34
2023-06-07T07:10:19.390Z,97487.88
2023-06-07T07:12:47.258Z,97487.59
2023-06-07T07:15:15.115Z,97484.19
2023-06-07T07:17:47.628Z,97486.19
2023-06-07T07:20:16.220Z,97483.88
2023-06-07T07:22:45.216Z,97486.44
2023-06-07T07:25:13.704Z,97500.75
2023-06-07T07:27:41.559Z,97496.13
2023-06-07T07:30:11.047Z,97491.78
2023-06-07T07:32:39.980Z,97504.16
2023-06-07T07:35:09.691Z,97498.09
2023-06-07T07:37:41.542Z,97501.44
2023-06-07T07:40:11.016Z,97512.19
2023-06-07T07:42:39.725Z,97500.09
2023-06-07T07:45:08.868Z,97516.91
2023-06-07T07:47:36.729Z,97507.13
2023-06-07T07:50:06.135Z,97513.53
2023-06-07T07:52:35.474Z,97507.94
2023-06-07T07:55:03.759Z,97504.41
2023-06-07T07:57:31.958Z,97513.16
2023-06-07T07:59:59.759Z,97503.84
2023-06-07T08:02:27.635Z,97510.31
2023-06-07T08:04:55.605Z,97477.00
2023-06-07T08:07:24.092Z,97507.22
2023-06-07T08:09:53.325Z,97509.25
2023-06-07T08:12:21.131Z,97506.69
2023-06-07T08:14:48.934Z,97514.59
2023-06-07T08:17:16.763Z,97506.34
2023-06-07T08:19:44.558Z,97500.50
2023-06-07T08:22:12.394Z,97507.09
2023-06-07T08:24:40.301Z,97504.91
2023-06-07T08:27:10.084Z,97495.16
2023-06-07T08:29:37.921Z,97493.41
2023-06-07T08:32:06.472Z,97497.31
2023-06-07T08:34:34.595Z,97490.72
2023-06-07T08:37:02.842Z,97493.69
2023-06-07T08:39:30.750Z,97490.44
2023-06-07T08:41:58.567Z,97494.50
2023-06-07T08:44:27.819Z,97483.69
2023-06-07T08:46:57.177Z,97499.34
2023-06-07T08:49:27.914Z,97508.84
2023-06-07T08:52:07.247Z,97504.91
2023-06-07T08:54:44.014Z,97473.25
2023-06-07T08:57:12.181Z,97493.03
2023-06-07T08:59:43.129Z,97503.00
2023-06-07T09:02:11.081Z,97496.19
2023-06-07T09:04:41.501Z,97499.53
2023-06-07T09:07:09.359Z,97500.38
2023-06-07T09:09:37.536Z,97504.00
2023-06-07T09:12:06.724Z,97503.03
2023-06-07T09:14:34.750Z,97499.47
2023-06-07T09:17:04.559Z,97510.41
2023-06-07T09:19:34.942Z,97506.09
2023-06-07T09:22:03.613Z,97494.38
2023-06-07T09:24:32.565Z,97507.28
2023-06-07T09:27:01.983Z,97479.69
2023-06-07T09:29:30.442Z,97510.41
2023-06-07T09:32:00.444Z,97506.00
2023-06-07T09:34:31.573Z,97509.28
2023-06-07T09:37:00.646Z,97510.22
2023-06-07T09:39:30.140Z,97509.53
2023-06-07T09:41:58.671Z,97511.81
2023-06-07T09:44:28.075Z,97484.38
2023-06-07T09:46:56.168Z,97510.94
2023-06-07T09:49:25.662Z,97510.81
2023-06-07T09:51:55.582Z,97512.38
2023-06-07T09:54:37.796Z,97513.13
2023-06-07T09:57:09.939Z,97512.72
2023-06-07T09:59:38.582Z,97513.75
2023-06-07T10:02:25.139Z,97511.69
2023-06-07T10:04:57.299Z,97510.50
2023-06-07T10:07:31.720Z,97515.03
2023-06-07T10:10:00.468Z,97502.47
2023-06-07T10:12:30.253Z,97509.38
2023-06-07T10:14:58.699Z,97491.22
2023-06-07T10:17:30.863Z,97512.03
2023-06-07T10:20:01.638Z,97506.53
2023-06-07T10:22:35.304Z,97502.53
2023-06-07T10:25:05.417Z,97479.78
2023-06-07T10:27:41.648Z,97490.38
2023-06-07T10:30:13.300Z,97494.13
2023-06-07T10:32:41.314Z,97492.16
2023-06-07T10:35:12.820Z,97495.94
2023-06-07T10:37:44.952Z,97498.34
2023-06-07T10:40:16.101Z,97491.56
2023-06-07T10:42:45.518Z,97497.31
2023-06-07T10:45:16.552Z,97478.38
2023-06-07T10:47:44.761Z,97505.75
2023-06-07T10:50:46.332Z,97498.63
2023-06-07T10:53:15.807Z,97492.00
2023-06-07T10:55:43.595Z,97497.63
2023-06-07T10:58:31.106Z,97498.19
2023-06-07T11:01:02.408Z,97490.09
2023-06-07T11:03:42.985Z,97496.84
2023-06-07T11:06:11.714Z,97495.19
2023-06-07T11:08:41.035Z,97495.78
2023-06-07T11:11:54.329Z,97501.03
2023-06-07T11:14:22.156Z,97492.19
2023-06-07T11:16:50.005Z,97481.22
2023-06-07T11:19:20.056Z,97481.22
2023-06-07T11:22:11.568Z,97482.47
2023-06-07T11:24:40.852Z,97481.63
2023-06-07T11:27:15.426Z,97484.13
2023-06-07T11:29:44.899Z,97469.25
2023-06-07T11:32:13.084Z,97479.84
2023-06-07T11:34:41.103Z,97474.06
2023-06-07T11:37:10.468Z,97476.81
2023-06-07T11:39:38.271Z,97466.22
2023-06-07T11:42:08.265Z,97467.03
2023-06-07T11:44:39.459Z,97464.53
2023-06-07T11:47:08.484Z,97461.84
2023-06-07T11:49:39.606Z,97466.44
2023-06-07T11:52:08.428Z,97469.25
2023-06-07T11:54:36.444Z,97471.13
2023-06-07T11:57:04.562Z,97474.78
2023-06-07T11:59:33.936Z,97460.84
2023-06-07T12:02:01.926Z,97458.41
2023-06-07T12:04:29.777Z,97465.59
2023-06-07T12:06:57.615Z,97458.16
2023-06-07T12:09:25.390Z,97449.59
2023-06-07T12:11:54.735Z,97454.94
2023-06-07T12:14:34.373Z,97453.66
2023-06-07T12:17:03.589Z,97454.91
2023-06-07T12:19:31.559Z,97447.28
2023-06-07T12:22:07.448Z,97451.88
2023-06-07T12:24:40.044Z,97441.44
2023-06-07T12:27:13.195Z,97440.19
2023-06-07T12:29:43.156Z,97442.28
2023-06-07T12:32:11.933Z,97437.72
2023-06-07T12:34:45.628Z,97432.38
2023-06-07T12:37:14.169Z,97429.38
2023-06-07T12:39:42.087Z,97432.31
2023-06-07T12:42:09.920Z,97427.50
2023-06-07T12:44:38.333Z,97421.81
2023-06-07T12:47:08.487Z,97418.47
2023-06-07T12:49:36.507Z,97418.31
2023-06-07T12:52:05.998Z,97412.50
2023-06-07T12:54:33.840Z,97422.28
2023-06-07T12:57:01.685Z,97409.63
2023-06-07T12:59:29.484Z,97411.06
2023-06-07T13:01:57.298Z,97402.19
2023-06-07T13:04:28.048Z,97408.16
2023-06-07T13:06:57.091Z,97402.09
2023-06-07T13:09:25.636Z,97400.91
2023-06-07T13:11:55.147Z,97396.06
2023-06-07T13:14:22.988Z,97403.97
2023-06-07T13:16:50.803Z,97400.19
2023-06-07T13:19:18.650Z,97399.25
2023-06-07T13:21:47.883Z,97398.56
2023-06-07T13:24:15.973Z,97403.53
2023-06-07T13:26:44.205Z,97400.25
2023-06-07T13:29:12.233Z,97392.50
2023-06-07T13:31:40.084Z,97386.03
2023-06-07T13:34:08.620Z,97389.31
2023-06-07T13:36:38.003Z,97391.28
2023-06-07T13:39:07.279Z,97383.56
2023-06-07T13:41:39.379Z,97388.56
2023-06-07T13:44:17.363Z,97381.88
2023-06-07T13:46:46.273Z,97381.09
2023-06-07T13:49:15.107Z,97383.38
2023-06-07T13:51:43.136Z,97376.38
2023-06-07T13:54:12.481Z,97376.88
2023-06-07T13:56:40.396Z,97371.03
2023-06-07T13:59:08.287Z,97369.13
2023-06-07T14:01:36.891Z,97365.38
2023-06-07T14:04:05.081Z,97363.75
2023-06-07T14:06:32.970Z,97363.66
2023-06-07T14:09:00.877Z,97353.03
2023-06-07T14:11:31.345Z,97353.28
2023-06-07T14:13:59.189Z,97356.06
2023-06-07T14:16:28.629Z,97351.50
2023-06-07T14:18:56.821Z,97349.25
2023-06-07T14:21:24.700Z,97353.59
2023-06-07T14:23:52.554Z,97344.50
2023-06-07T14:26:21.025Z,97357.41
2023-06-07T14:28:50.373Z,97358.00
2023-06-07T14:31:20.347Z,97348.00
2023-06-07T14:33:48.202Z,97344.25
2023-06-07T14:36:17.378Z,97343.56
2023-06-07T14:38:45.296Z,97346.47
2023-06-07T14:41:13.620Z,97347.09
2023-06-07T14:43:41.401Z,97351.88
2023-06-07T14:46:10.624Z,97347.13
2023-06-07T14:48:38.456Z,97339.03
2023-06-07T14:51:06.293Z,97332.84
2023-06-07T14:53:34.112Z,97328.41
2023-06-07T14:56:01.913Z,97320.16
2023-06-07T14:58:29.814Z,97322.47
2023-06-07T15:00:57.701Z,97321.44
2023-06-07T15:03:26.964Z,97319.66
2023-06-07T15:05:54.861Z,97317.91
2023-06-07T15:08:22.643Z,97309.47
2023-06-07T15:10:50.429Z,97321.00
2023-06-07T15:13:19.243Z,97318.69
2023-06-07T15:15:47.138Z,97327.00
2023-06-07T15:18:16.760Z,97324.50
2023-06-07T15:20:46.072Z,97326.56
2023-06-07T15:23:13.878Z,97325.31
2023-06-07T15:25:42.047Z,97317.41
2023-06-07T15:28:09.900Z,97305.00
2023-06-07T15:30:37.743Z,97305.38
2023-06-07T15:33:05.909Z,97297.88
2023-06-07T15:35:33.841Z,97309.53
2023-06-07T15:38:03.125Z,97310.16
2023-06-07T15:40:31.230Z,97310.13
2023-06-07T15:42:59.138Z,97319.28
2023-06-07T15:45:28.220Z,97310.31
2023-06-07T15:48:02.797Z,97304.28
2023-06-07T15:50:31.615Z,97308.78
2023-06-07T15:53:00.442Z,97307.69
2023-06-07T15:55:29.630Z,97314.56
2023-06-07T15:57:57.678Z,97307.81
2023-06-07T16:00:37.614Z,97311.78
2023-06-07T16:03:07.055Z,97313.56
2023-06-07T16:05:35.668Z,97304.38
2023-06-07T16:08:12.538Z,97302.91
2023-06-07T16:10:42.907Z,97302.84
2023-06-07T16:13:10.809Z,97303.63
2023-06-07T16:15:38.699Z,97304.28
2023-06-07T16:18:07.015Z,97290.72
2023-06-07T16:20:34.842Z,97305.63
2023-06-07T16:23:02.697Z,97298.81
2023-06-07T16:25:30.562Z,97301.78
2023-06-07T16:27:59.700Z,97300.69
2023-06-07T16:30:27.818Z,97299.34
2023-06-07T16:32:55.983Z,97308.28
2023-06-07T16:35:23.844Z,97319.16
2023-06-07T16:37:51.609Z,97313.25
2023-06-07T16:40:19.617Z,97315.38
2023-06-07T16:42:47.471Z,97321.13
2023-06-07T16:45:16.770Z,97314.47
2023-06-07T16:47:44.566Z,97321.00
2023-06-07T16:50:12.827Z,97323.19
2023-06-07T16:52:40.718Z,97317.53
2023-06-07T16:55:09.289Z,97313.34
2023-06-07T16:57:39.957Z,97311.72
2023-06-07T17:00:09.582Z,97308.91
2023-06-07T17:02:38.884Z,97307.63
2023-06-07T17:05:08.056Z,97311.03
2023-06-07T17:07:36.284Z,97309.63
2023-06-07T17:10:04.418Z,97303.81
2023-06-07T17:12:32.591Z,97305.22
2023-06-07T17:15:00.419Z,97297.81
2023-06-07T17:17:28.316Z,97300.03
2023-06-07T17:19:57.561Z,97300.88
2023-06-07T17:22:25.774Z,97310.09
2023-06-07T17:24:53.582Z,97297.91
2023-06-07T17:27:21.366Z,97306.28
2023-06-07T17:29:49.178Z,97304.28
2023-06-07T17:32:17.015Z,97309.81
2023-06-07T17:34:44.796Z,97313.03
2023-06-07T17:37:17.876Z,97313.91
2023-06-07T17:39:45.705Z,97310.41
2023-06-07T17:42:16.957Z,97312.59
2023-06-07T17:44:44.789Z,97308.84
2023-06-07T17:47:14.500Z,97302.31
2023-06-07T17:49:43.791Z,97307.97
2023-06-07T17:52:21.583Z,97308.94
2023-06-07T17:54:51.185Z,97304.91
2023-06-07T17:57:18.951Z,97305.88
2023-06-07T17:59:46.746Z,97301.88
2023-06-07T18:02:14.550Z,97308.56
2023-06-07T18:04:42.396Z,97311.88
2023-06-07T18:07:10.156Z,97299.16
2023-06-07T18:09:39.850Z,97308.78
2023-06-07T18:12:11.380Z,97309.41
2023-06-07T18:14:41.145Z,97308.66
2023-06-07T18:17:09.429Z,97305.50
2023-06-07T18:19:37.538Z,97316.31
2023-06-07T18:22:06.267Z,97314.97
2023-06-07T18:24:34.079Z,97326.13
2023-06-07T18:27:03.631Z,97331.09
2023-06-07T18:29:31.552Z,97327.38
2023-06-07T18:31:59.440Z,97327.72
2023-06-07T18:34:27.219Z,97327.03
2023-06-07T18:36:55.049Z,97321.16
2023-06-07T18:39:23.576Z,97331.69
2023-06-07T18:41:52.053Z,97323.16
2023-06-07T18:44:21.281Z,97321.13
2023-06-07T18:46:49.406Z,97326.91
2023-06-07T18:49:17.801Z,97330.06
2023-06-07T18:51:45.681Z,97328.06
2023-06-07T18:54:13.502Z,97338.19
2023-06-07T18:56:41.536Z,97335.38
2023-06-07T18:59:09.333Z,97333.34
2023-06-07T19:01:51.382Z,97332.78
2023-06-07T19:04:20.430Z,97328.59
2023-06-07T19:06:51.564Z,97331.28
2023-06-07T19:09:20.085Z,97331.41
2023-06-07T19:11:48.074Z,97328.19
2023-06-07T19:14:17.374Z,97324.53
2023-06-07T19:16:47.156Z,97326.56
2023-06-07T19:19:15.242Z,97324.03
2023-06-07T19:21:43.062Z,97325.50
2023-06-07T19:24:10.881Z,97326.63
2023-06-07T19:26:38.719Z,97328.44
2023-06-07T19:29:06.560Z,97335.94
2023-06-07T19:31:34.886Z,97333.94
2023-06-07T19:34:06.804Z,97334.13
2023-06-07T19:36:34.658Z,97337.06
2023-06-07T19:39:02.485Z,97339.88
2023-06-07T19:41:30.338Z,97334.69
2023-06-07T19:43:58.174Z,97341.06
2023-06-07T19:46:25.968Z,97343.03
2023-06-07T19:48:53.892Z,97337.13
2023-06-07T19:51:23.947Z,97336.00
2023-06-07T19:53:53.148Z,97338.97
2023-06-07T19:56:21.274Z,97332.97
2023-06-07T19:58:49.124Z,97337.31
2023-06-07T20:01:16.980Z,97333.25
2023-06-07T20:03:44.835Z,97348.56
2023-06-07T20:06:12.794Z,97340.88
2023-06-07T20:08:41.996Z,97341.88
2023-06-07T20:11:09.818Z,97343.84
2023-06-07T20:13:37.642Z,97341.34
2023-06-07T20:16:06.043Z,97340.50
2023-06-07T20:18:33.929Z,97340.66
2023-06-07T20:21:01.788Z,97341.50
2023-06-07T20:23:29.646Z,97343.47
2023-06-07T20:25:58.964Z,97342.47
2023-06-07T20:28:26.755Z,97340.66
2023-06-07T20:30:54.556Z,97335.47
2023-06-07T20:33:22.363Z,97331.81
2023-06-07T20:35:50.193Z,97334.78
2023-06-07T20:38:17.948Z,97340.94
2023-06-07T20:40:45.766Z,97333.09
2023-06-07T20:43:14.940Z,97329.63
2023-06-07T20:45:43.644Z,97340.44
2023-06-07T20:48:11.632Z,97337.91
2023-06-07T20:50:39.576Z,97339.22
2023-06-07T20:53:07.392Z,97333.41
2023-06-07T20:55:36.517Z,97342.09
2023-06-07T20:58:04.368Z,97349.63
2023-06-07T21:00:33.513Z,97345.84
2023-06-07T21:03:01.476Z,97339.66
2023-06-07T21:05:29.341Z,97342.72
2023-06-07T21:07:57.164Z,97348.88
2023-06-07T21:10:24.991Z,97334.16
2023-06-07T21:12:52.756Z,97341.19
2023-06-07T21:15:20.648Z,97349.50
2023-06-07T21:17:49.836Z,97353.16
2023-06-07T21:20:18.500Z,97350.63
2023-06-07T21:22:46.306Z,97338.41
2023-06-07T21:25:14.186Z,97349.50
2023-06-07T21:27:42.043Z,97347.34
2023-06-07T21:30:10.453Z,97355.19
2023-06-07T21:32:38.356Z,97349.16
2023-06-07T21:35:08.931Z,97358.00
2023-06-07T21:37:36.789Z,97360.91
2023-06-07T21:40:05.319Z,97353.91
2023-06-07T21:42:33.382Z,97356.88
2023-06-07T21:45:01.376Z,97351.19
2023-06-07T21:47:29.214Z,97355.66
2023-06-07T21:49:58.524Z,97354.13
2023-06-07T21:52:27.831Z,97357.78
2023-06-07T21:54:56.036Z,97356.09
2023-06-07T21:57:23.959Z,97357.78
2023-06-07T21:59:51.769Z,97349.09
2023-06-07T22:02:19.546Z,97345.16
2023-06-07T22:04:47.476Z,97346.81
2023-06-07T22:07:15.388Z,97346.38
2023-06-07T22:09:45.682Z,97339.91
2023-06-07T22:12:15.795Z,97345.59
2023-06-07T22:14:44.415Z,97345.31
2023-06-07T22:17:12.293Z,97343.03
2023-06-07T22:19:41.881Z,97341.06
2023-06-07T22:22:09.699Z,97342.78
2023-06-07T22:24:37.492Z,97342.47
2023-06-07T22:27:07.709Z,97341.50
2023-06-07T22:29:35.615Z,97346.50
2023-06-07T22:32:03.694Z,97337.28
2023-06-07T22:34:31.511Z,97345.53
2023-06-07T22:37:04.203Z,97339.50
2023-06-07T22:39:32.060Z,97342.34
2023-06-07T22:41:59.843Z,97339.81
2023-06-07T22:44:29.035Z,97338.00
2023-06-07T22:46:57.019Z,97338.13
2023-06-07T22:49:30.302Z,97336.78
2023-06-07T22:51:58.840Z,97333.41
2023-06-07T22:54:28.717Z,97335.41
2023-06-07T22:56:56.693Z,97330.06
2023-06-07T22:59:24.820Z,97334.56
2023-06-07T23:01:54.924Z,97297.53
2023-06-07T23:04:22.893Z,97334.41
2023-06-07T23:06:50.988Z,97337.06
2023-06-07T23:09:19.163Z,97340.72
2023-06-07T23:11:50.188Z,97337.06
2023-06-07T23:14:19.115Z,97341.72
2023-06-07T23:16:49.834Z,97333.06
2023-06-07T23:19:20.446Z,97329.00
2023-06-07T23:21:48.576Z,97337.97
2023-06-07T23:24:22.386Z,97329.31
2023-06-07T23:26:50.235Z,97340.28
2023-06-07T23:29:18.132Z,97329.25
2023-06-07T23:31:48.675Z,97328.69
2023-06-07T23:34:16.745Z,97322.00
2023-06-07T23:36:46.144Z,97322.97
2023-06-07T23:39:14.036Z,97319.47
2023-06-07T23:41:41.902Z,97326.13
2023-06-07T23:44:24.386Z,97318.03
2023-06-07T23:46:52.668Z,97318.78
2023-06-07T23:49:20.619Z,97286.34
2023-06-07T23:51:49.768Z,97317.56
2023-06-07T23:54:17.672Z,97327.97
2023-06-07T23:56:45.482Z,97323.78
2023-06-07T23:59:13.293Z,97307.78
